sensor_id;sensor_type;location;lat;lon;timestamp;pressure;altitude;pressure_sealevel;temperature
62930;BMP280;49036;42.782;23.108;2023-04-03T00:01:14;-14187.16;;;4.43
62930;BMP280;49036;42.782;23.108;2023-04-03T00:03:41;-14186.13;;;4.40
62930;BMP280;49036;42.782;23.108;2023-04-03T00:06:07;-14186.28;;;4.40
62930;BMP280;49036;42.782;23.108;2023-04-03T00:08:34;-14183.88;;;4.33
62930;BMP280;49036;42.782;23.108;2023-04-03T00:11:00;-14184.91;;;4.36
62930;BMP280;49036;42.782;23.108;2023-04-03T00:13:25;-14185.09;;;4.37
62930;BMP280;49036;42.782;23.108;2023-04-03T00:15:52;-14185.44;;;4.38
62930;BMP280;49036;42.782;23.108;2023-04-03T00:18:17;-14183.00;;;4.30
62930;BMP280;49036;42.782;23.108;2023-04-03T00:20:43;-14180.25;;;4.22
62930;BMP280;49036;42.782;23.108;2023-04-03T00:23:09;-14177.66;;;4.15
62930;BMP280;49036;42.782;23.108;2023-04-03T00:25:35;-14174.53;;;4.05
62930;BMP280;49036;42.782;23.108;2023-04-03T00:28:01;-14175.06;;;4.07
62930;BMP280;49036;42.782;23.108;2023-04-03T00:30:26;-14173.00;;;4.01
62930;BMP280;49036;42.782;23.108;2023-04-03T00:32:52;-14171.78;;;3.97
62930;BMP280;49036;42.782;23.108;2023-04-03T00:35:19;-14169.72;;;3.91
62930;BMP280;49036;42.782;23.108;2023-04-03T00:37:45;-14166.25;;;3.81
62930;BMP280;49036;42.782;23.108;2023-04-03T00:40:12;-14163.66;;;3.73
62930;BMP280;49036;42.782;23.108;2023-04-03T00:42:42;-14161.94;;;3.68
62930;BMP280;49036;42.782;23.108;2023-04-03T00:47:38;-14161.25;;;3.66
62930;BMP280;49036;42.782;23.108;2023-04-03T00:50:04;-14159.34;;;3.61
62930;BMP280;49036;42.782;23.108;2023-04-03T00:52:30;-14164.19;;;3.75
62930;BMP280;49036;42.782;23.108;2023-04-03T00:55:02;-14170.06;;;3.92
62930;BMP280;49036;42.782;23.108;2023-04-03T00:57:30;-14176.78;;;4.12
62930;BMP280;49036;42.782;23.108;2023-04-03T00:59:59;-14177.31;;;4.14
62930;BMP280;49036;42.782;23.108;2023-04-03T01:02:27;-14177.66;;;4.15
62930;BMP280;49036;42.782;23.108;2023-04-03T01:04:52;-14175.75;;;4.09
62930;BMP280;49036;42.782;23.108;2023-04-03T01:07:22;-14178.69;;;4.18
62930;BMP280;49036;42.782;23.108;2023-04-03T01:09:51;-14178.53;;;4.17
62930;BMP280;49036;42.782;23.108;2023-04-03T01:12:34;-14183.00;;;4.30
62930;BMP280;49036;42.782;23.108;2023-04-03T01:15:04;-14182.50;;;4.29
62930;BMP280;49036;42.782;23.108;2023-04-03T01:17:39;-14180.41;;;4.23
62930;BMP280;49036;42.782;23.108;2023-04-03T01:25:39;-14177.66;;;4.15
62930;BMP280;49036;42.782;23.108;2023-04-03T01:28:07;-14177.66;;;4.15
62930;BMP280;49036;42.782;23.108;2023-04-03T01:30:36;-14176.97;;;4.13
62930;BMP280;49036;42.782;23.108;2023-04-03T01:33:04;-14176.28;;;4.11
62930;BMP280;49036;42.782;23.108;2023-04-03T01:35:30;-14174.19;;;4.04
62930;BMP280;49036;42.782;23.108;2023-04-03T01:37:55;-14174.19;;;4.04
62930;BMP280;49036;42.782;23.108;2023-04-03T01:40:21;-14173.84;;;4.03
62930;BMP280;49036;42.782;23.108;2023-04-03T01:42:46;-14173.16;;;4.01
62930;BMP280;49036;42.782;23.108;2023-04-03T01:45:12;-14170.41;;;3.93
62930;BMP280;49036;42.782;23.108;2023-04-03T01:47:37;-14174.53;;;4.05
62930;BMP280;49036;42.782;23.108;2023-04-03T01:50:03;-14173.34;;;4.02
62930;BMP280;49036;42.782;23.108;2023-04-03T01:52:29;-14172.81;;;4.00
62930;BMP280;49036;42.782;23.108;2023-04-03T01:54:55;-14170.56;;;3.94
62930;BMP280;49036;42.782;23.108;2023-04-03T01:57:20;-14169.03;;;3.89
62930;BMP280;49036;42.782;23.108;2023-04-03T01:59:46;-14167.97;;;3.86
62930;BMP280;49036;42.782;23.108;2023-04-03T02:02:11;-14166.94;;;3.83
62930;BMP280;49036;42.782;23.108;2023-04-03T02:04:37;-14168.31;;;3.87
62930;BMP280;49036;42.782;23.108;2023-04-03T02:07:03;-14170.22;;;3.93
62930;BMP280;49036;42.782;23.108;2023-04-03T02:09:29;-14173.84;;;4.03
62930;BMP280;49036;42.782;23.108;2023-04-03T02:11:54;-14174.88;;;4.07
62930;BMP280;49036;42.782;23.108;2023-04-03T02:14:20;-14173.16;;;4.01
62930;BMP280;49036;42.782;23.108;2023-04-03T02:16:47;-14169.72;;;3.91
62930;BMP280;49036;42.782;23.108;2023-04-03T02:19:12;-14170.41;;;3.93
62930;BMP280;49036;42.782;23.108;2023-04-03T02:21:38;-14169.19;;;3.90
62930;BMP280;49036;42.782;23.108;2023-04-03T02:24:04;-14166.25;;;3.81
62930;BMP280;49036;42.782;23.108;2023-04-03T02:26:29;-14165.75;;;3.80
62930;BMP280;49036;42.782;23.108;2023-04-03T02:28:55;-14164.34;;;3.75
62930;BMP280;49036;42.782;23.108;2023-04-03T02:31:21;-14166.09;;;3.81
62930;BMP280;49036;42.782;23.108;2023-04-03T02:33:47;-14164.88;;;3.77
62930;BMP280;49036;42.782;23.108;2023-04-03T02:36:12;-14164.19;;;3.75
62930;BMP280;49036;42.782;23.108;2023-04-03T02:38:38;-14164.34;;;3.75
62930;BMP280;49036;42.782;23.108;2023-04-03T02:41:08;-14161.78;;;3.68
62930;BMP280;49036;42.782;23.108;2023-04-03T02:43:34;-14159.88;;;3.62
62930;BMP280;49036;42.782;23.108;2023-04-03T02:46:00;-14158.31;;;3.58
62930;BMP280;49036;42.782;23.108;2023-04-03T02:48:25;-14157.78;;;3.56
62930;BMP280;49036;42.782;23.108;2023-04-03T02:50:51;-14162.47;;;3.70
62930;BMP280;49036;42.782;23.108;2023-04-03T02:53:17;-14161.59;;;3.67
62930;BMP280;49036;42.782;23.108;2023-04-03T02:55:43;-14162.13;;;3.69
62930;BMP280;49036;42.782;23.108;2023-04-03T02:58:09;-14160.56;;;3.64
62930;BMP280;49036;42.782;23.108;2023-04-03T03:00:35;-14160.56;;;3.64
62930;BMP280;49036;42.782;23.108;2023-04-03T03:03:00;-14163.50;;;3.73
62930;BMP280;49036;42.782;23.108;2023-04-03T03:05:27;-14164.00;;;3.74
62930;BMP280;49036;42.782;23.108;2023-04-03T03:07:53;-14165.22;;;3.78
62930;BMP280;49036;42.782;23.108;2023-04-03T03:10:18;-14164.53;;;3.76
62930;BMP280;49036;42.782;23.108;2023-04-03T03:12:44;-14165.75;;;3.80
62930;BMP280;49036;42.782;23.108;2023-04-03T03:15:10;-14163.31;;;3.72
62930;BMP280;49036;42.782;23.108;2023-04-03T03:17:35;-14162.81;;;3.71
62930;BMP280;49036;42.782;23.108;2023-04-03T03:20:02;-14165.06;;;3.78
62930;BMP280;49036;42.782;23.108;2023-04-03T03:22:28;-14163.31;;;3.72
62930;BMP280;49036;42.782;23.108;2023-04-03T03:24:54;-14162.63;;;3.70
62930;BMP280;49036;42.782;23.108;2023-04-03T03:27:20;-14157.97;;;3.57
62930;BMP280;49036;42.782;23.108;2023-04-03T03:29:45;-14156.25;;;3.52
62930;BMP280;49036;42.782;23.108;2023-04-03T03:32:11;-14157.28;;;3.55
62930;BMP280;49036;42.782;23.108;2023-04-03T03:34:36;-14155.38;;;3.49
62930;BMP280;49036;42.782;23.108;2023-04-03T03:37:02;-14153.31;;;3.43
62930;BMP280;49036;42.782;23.108;2023-04-03T03:39:28;-14152.63;;;3.41
62930;BMP280;49036;42.782;23.108;2023-04-03T03:41:53;-14151.94;;;3.39
62930;BMP280;49036;42.782;23.108;2023-04-03T03:44:19;-14151.25;;;3.37
62930;BMP280;49036;42.782;23.108;2023-04-03T03:46:45;-14148.66;;;3.29
62930;BMP280;49036;42.782;23.108;2023-04-03T03:49:11;-14147.28;;;3.25
62930;BMP280;49036;42.782;23.108;2023-04-03T03:51:37;-14146.41;;;3.23
62930;BMP280;49036;42.782;23.108;2023-04-03T03:54:03;-14144.84;;;3.18
62930;BMP280;49036;42.782;23.108;2023-04-03T03:56:29;-14141.22;;;3.07
62930;BMP280;49036;42.782;23.108;2023-04-03T03:58:54;-14136.91;;;2.95
62930;BMP280;49036;42.782;23.108;2023-04-03T04:01:22;-14127.06;;;2.66
62930;BMP280;49036;42.782;23.108;2023-04-03T04:03:48;-14121.03;;;2.48
62930;BMP280;49036;42.782;23.108;2023-04-03T04:06:14;-14112.91;;;2.24
62930;BMP280;49036;42.782;23.108;2023-04-03T04:08:40;-14101.00;;;1.89
62930;BMP280;49036;42.782;23.108;2023-04-03T04:11:06;-14091.53;;;1.61
62930;BMP280;49036;42.782;23.108;2023-04-03T04:13:31;-14086.34;;;1.45
62930;BMP280;49036;42.782;23.108;2023-04-03T04:15:57;-14079.78;;;1.26
62930;BMP280;49036;42.782;23.108;2023-04-03T04:18:22;-14078.59;;;1.23
62930;BMP280;49036;42.782;23.108;2023-04-03T04:20:49;-14074.44;;;1.10
62930;BMP280;49036;42.782;23.108;2023-04-03T04:23:16;-14071.84;;;1.03
62930;BMP280;49036;42.782;23.108;2023-04-03T04:25:47;-14072.88;;;1.06
62930;BMP280;49036;42.782;23.108;2023-04-03T04:28:14;-14070.47;;;0.99
62930;BMP280;49036;42.782;23.108;2023-04-03T04:30:39;-14069.09;;;0.95
62930;BMP280;49036;42.782;23.108;2023-04-03T04:33:05;-14069.59;;;0.96
62930;BMP280;49036;42.782;23.108;2023-04-03T04:35:32;-14068.22;;;0.92
62930;BMP280;49036;42.782;23.108;2023-04-03T04:37:57;-14066.50;;;0.87
62930;BMP280;49036;42.782;23.108;2023-04-03T04:40:23;-14070.28;;;0.98
62930;BMP280;49036;42.782;23.108;2023-04-03T04:42:48;-14074.44;;;1.10
62930;BMP280;49036;42.782;23.108;2023-04-03T04:45:14;-14077.19;;;1.18
62930;BMP280;49036;42.782;23.108;2023-04-03T04:47:40;-14082.72;;;1.35
62930;BMP280;49036;42.782;23.108;2023-04-03T04:50:06;-14085.81;;;1.44
62930;BMP280;49036;42.782;23.108;2023-04-03T04:52:32;-14089.63;;;1.55
62930;BMP280;49036;42.782;23.108;2023-04-03T04:54:57;-14094.28;;;1.69
62930;BMP280;49036;42.782;23.108;2023-04-03T04:57:23;-14099.47;;;1.84
62930;BMP280;49036;42.782;23.108;2023-04-03T04:59:48;-14101.88;;;1.91
62930;BMP280;49036;42.782;23.108;2023-04-03T05:02:14;-14104.97;;;2.00
62930;BMP280;49036;42.782;23.108;2023-04-03T05:04:39;-14111.03;;;2.18
62930;BMP280;49036;42.782;23.108;2023-04-03T05:07:05;-14117.06;;;2.36
62930;BMP280;49036;42.782;23.108;2023-04-03T05:09:30;-14124.47;;;2.58
62930;BMP280;49036;42.782;23.108;2023-04-03T05:11:56;-14129.31;;;2.72
62930;BMP280;49036;42.782;23.108;2023-04-03T05:14:22;-14131.38;;;2.78
62930;BMP280;49036;42.782;23.108;2023-04-03T05:16:47;-14135.00;;;2.89
62930;BMP280;49036;42.782;23.108;2023-04-03T05:19:13;-14142.59;;;3.11
62930;BMP280;49036;42.782;23.108;2023-04-03T05:21:39;-14150.56;;;3.35
62930;BMP280;49036;42.782;23.108;2023-04-03T05:24:05;-14155.56;;;3.50
62930;BMP280;49036;42.782;23.108;2023-04-03T05:26:34;-14157.28;;;3.55
62930;BMP280;49036;42.782;23.108;2023-04-03T05:28:59;-14162.81;;;3.71
62930;BMP280;49036;42.782;23.108;2023-04-03T05:31:25;-14167.63;;;3.85
62930;BMP280;49036;42.782;23.108;2023-04-03T05:33:51;-14175.41;;;4.08
62930;BMP280;49036;42.782;23.108;2023-04-03T05:36:16;-14190.78;;;4.53
62930;BMP280;49036;42.782;23.108;2023-04-03T05:38:42;-14197.34;;;4.73
62930;BMP280;49036;42.782;23.108;2023-04-03T05:41:08;-14203.22;;;4.90
62930;BMP280;49036;42.782;23.108;2023-04-03T05:43:33;-14204.41;;;4.93
62930;BMP280;49036;42.782;23.108;2023-04-03T05:45:59;-14206.84;;;5.01
62930;BMP280;49036;42.782;23.108;2023-04-03T05:48:25;-14206.31;;;4.99
62930;BMP280;49036;42.782;23.108;2023-04-03T05:50:51;-14205.97;;;4.98
62930;BMP280;49036;42.782;23.108;2023-04-03T05:53:24;-14204.59;;;4.94
62930;BMP280;49036;42.782;23.108;2023-04-03T05:55:51;-14200.97;;;4.83
62930;BMP280;49036;42.782;23.108;2023-04-03T05:58:17;-14197.34;;;4.73
62930;BMP280;49036;42.782;23.108;2023-04-03T06:00:42;-14197.69;;;4.74
62930;BMP280;49036;42.782;23.108;2023-04-03T06:03:08;-14202.19;;;4.87
62930;BMP280;49036;42.782;23.108;2023-04-03T06:05:33;-14202.19;;;4.87
62930;BMP280;49036;42.782;23.108;2023-04-03T06:08:00;-14207.88;;;5.04
62930;BMP280;49036;42.782;23.108;2023-04-03T06:10:25;-14216.69;;;5.30
62930;BMP280;49036;42.782;23.108;2023-04-03T06:12:51;-14221.19;;;5.43
62930;BMP280;49036;42.782;23.108;2023-04-03T06:15:16;-14229.81;;;5.68
62930;BMP280;49036;42.782;23.108;2023-04-03T06:17:42;-14235.69;;;5.86
62930;BMP280;49036;42.782;23.108;2023-04-03T06:20:09;-14240.00;;;5.98
62930;BMP280;49036;42.782;23.108;2023-04-03T06:22:34;-14245.34;;;6.14
62930;BMP280;49036;42.782;23.108;2023-04-03T06:25:00;-14252.97;;;6.36
62930;BMP280;49036;42.782;23.108;2023-04-03T06:27:26;-14257.97;;;6.51
62930;BMP280;49036;42.782;23.108;2023-04-03T06:29:52;-14268.50;;;6.82
62930;BMP280;49036;42.782;23.108;2023-04-03T06:32:17;-14270.94;;;6.89
62930;BMP280;49036;42.782;23.108;2023-04-03T06:34:43;-14275.44;;;7.02
62930;BMP280;49036;42.782;23.108;2023-04-03T06:37:27;-14275.94;;;7.04
62930;BMP280;49036;42.782;23.108;2023-04-03T06:39:54;-14273.00;;;6.95
62930;BMP280;49036;42.782;23.108;2023-04-03T06:42:20;-14269.22;;;6.84
62930;BMP280;49036;42.782;23.108;2023-04-03T06:44:46;-14280.25;;;7.17
62930;BMP280;49036;42.782;23.108;2023-04-03T06:47:16;-14287.34;;;7.38
62930;BMP280;49036;42.782;23.108;2023-04-03T06:49:42;-14295.81;;;7.63
62930;BMP280;49036;42.782;23.108;2023-04-03T06:52:08;-14300.50;;;7.76
62930;BMP280;49036;42.782;23.108;2023-04-03T06:54:34;-14301.88;;;7.80
62930;BMP280;49036;42.782;23.108;2023-04-03T06:56:59;-14307.41;;;7.97
62930;BMP280;49036;42.782;23.108;2023-04-03T06:59:25;-14313.09;;;8.13
62930;BMP280;49036;42.782;23.108;2023-04-03T07:01:51;-14317.59;;;8.27
62930;BMP280;49036;42.782;23.108;2023-04-03T07:04:17;-14322.44;;;8.41
62930;BMP280;49036;42.782;23.108;2023-04-03T07:06:43;-14324.69;;;8.47
62930;BMP280;49036;42.782;23.108;2023-04-03T07:09:09;-14330.22;;;8.64
62930;BMP280;49036;42.782;23.108;2023-04-03T07:11:35;-14340.44;;;8.94
62930;BMP280;49036;42.782;23.108;2023-04-03T07:14:02;-14350.28;;;9.23
62930;BMP280;49036;42.782;23.108;2023-04-03T07:16:28;-14358.56;;;9.47
62930;BMP280;49036;42.782;23.108;2023-04-03T07:18:56;-14357.38;;;9.43
62930;BMP280;49036;42.782;23.108;2023-04-03T07:21:22;-14361.00;;;9.54
62930;BMP280;49036;42.782;23.108;2023-04-03T07:23:48;-14365.69;;;9.68
62930;BMP280;49036;42.782;23.108;2023-04-03T07:26:13;-14361.16;;;9.55
62930;BMP280;49036;42.782;23.108;2023-04-03T07:28:38;-14361.00;;;9.54
62930;BMP280;49036;42.782;23.108;2023-04-03T07:31:08;-14372.25;;;9.87
62930;BMP280;49036;42.782;23.108;2023-04-03T07:33:37;-14384.00;;;10.22
62930;BMP280;49036;42.782;23.108;2023-04-03T07:36:04;-14390.56;;;10.41
62930;BMP280;49036;42.782;23.108;2023-04-03T07:38:32;-14398.34;;;10.64
62930;BMP280;49036;42.782;23.108;2023-04-03T07:40:58;-14402.84;;;10.77
62930;BMP280;49036;42.782;23.108;2023-04-03T07:43:24;-14413.94;;;11.10
62930;BMP280;49036;42.782;23.108;2023-04-03T07:45:52;-14437.28;;;11.78
62930;BMP280;49036;42.782;23.108;2023-04-03T07:48:23;-14464.63;;;12.58
62930;BMP280;49036;42.782;23.108;2023-04-03T07:50:49;-14472.75;;;12.82
62930;BMP280;49036;42.782;23.108;2023-04-03T07:53:14;-14468.94;;;12.71
62930;BMP280;49036;42.782;23.108;2023-04-03T07:55:40;-14459.09;;;12.42
62930;BMP280;49036;42.782;23.108;2023-04-03T07:58:10;-14444.72;;;12.00
62930;BMP280;49036;42.782;23.108;2023-04-03T08:00:36;-14446.97;;;12.07
62930;BMP280;49036;42.782;23.108;2023-04-03T08:03:02;-14454.59;;;12.29
62930;BMP280;49036;42.782;23.108;2023-04-03T08:05:27;-14442.47;;;11.93
62930;BMP280;49036;42.782;23.108;2023-04-03T08:07:52;-14436.41;;;11.76
62930;BMP280;49036;42.782;23.108;2023-04-03T08:10:18;-14430.00;;;11.57
62930;BMP280;49036;42.782;23.108;2023-04-03T08:12:46;-14425.19;;;11.43
62930;BMP280;49036;42.782;23.108;2023-04-03T08:15:12;-14425.50;;;11.44
62930;BMP280;49036;42.782;23.108;2023-04-03T08:17:37;-14435.72;;;11.74
62930;BMP280;49036;42.782;23.108;2023-04-03T08:20:05;-14457.69;;;12.38
62930;BMP280;49036;42.782;23.108;2023-04-03T08:22:32;-14460.81;;;12.47
62930;BMP280;49036;42.782;23.108;2023-04-03T08:24:58;-14468.78;;;12.71
62930;BMP280;49036;42.782;23.108;2023-04-03T08:27:24;-14482.97;;;13.12
62930;BMP280;49036;42.782;23.108;2023-04-03T08:29:49;-14499.91;;;13.62
62930;BMP280;49036;42.782;23.108;2023-04-03T08:32:15;-14504.25;;;13.75
62930;BMP280;49036;42.782;23.108;2023-04-03T08:34:41;-14520.69;;;14.23
62930;BMP280;49036;42.782;23.108;2023-04-03T08:37:06;-14527.63;;;14.43
62930;BMP280;49036;42.782;23.108;2023-04-03T08:39:32;-14536.44;;;14.69
62930;BMP280;49036;42.782;23.108;2023-04-03T08:42:00;-14544.91;;;14.94
62930;BMP280;49036;42.782;23.108;2023-04-03T08:44:46;-14557.22;;;15.30
62930;BMP280;49036;42.782;23.108;2023-04-03T08:47:46;-14569.50;;;15.66
62930;BMP280;49036;42.782;23.108;2023-04-03T08:50:15;-14572.09;;;15.74
62930;BMP280;49036;42.782;23.108;2023-04-03T08:52:48;-14574.72;;;15.81
62930;BMP280;49036;42.782;23.108;2023-04-03T08:55:32;-14569.84;;;15.67
62930;BMP280;49036;42.782;23.108;2023-04-03T08:58:00;-14566.38;;;15.57
62930;BMP280;49036;42.782;23.108;2023-04-03T09:00:30;-14564.47;;;15.51
62930;BMP280;49036;42.782;23.108;2023-04-03T09:02:57;-14560.00;;;15.38
62930;BMP280;49036;42.782;23.108;2023-04-03T09:05:35;-14554.63;;;15.22
62930;BMP280;49036;42.782;23.108;2023-04-03T09:08:11;-14552.88;;;15.17
62930;BMP280;49036;42.782;23.108;2023-04-03T09:10:40;-14558.44;;;15.34
62930;BMP280;49036;42.782;23.108;2023-04-03T09:13:29;-14560.16;;;15.39
62930;BMP280;49036;42.782;23.108;2023-04-03T09:15:56;-14567.78;;;15.61
62930;BMP280;49036;42.782;23.108;2023-04-03T09:18:33;-14559.13;;;15.36
62930;BMP280;49036;42.782;23.108;2023-04-03T09:21:03;-14560.34;;;15.39
62930;BMP280;49036;42.782;23.108;2023-04-03T09:26:05;-14569.69;;;15.67
62930;BMP280;49036;42.782;23.108;2023-04-03T09:28:38;-14566.75;;;15.58
62930;BMP280;49036;42.782;23.108;2023-04-03T09:31:22;-14574.19;;;15.80
62930;BMP280;49036;42.782;23.108;2023-04-03T09:33:57;-14554.28;;;15.21
62930;BMP280;49036;42.782;23.108;2023-04-03T09:36:44;-14538.88;;;14.76
62930;BMP280;49036;42.782;23.108;2023-04-03T09:39:19;-14560.16;;;15.39
62930;BMP280;49036;42.782;23.108;2023-04-03T09:42:21;-14571.25;;;15.71
62930;BMP280;49036;42.782;23.108;2023-04-03T09:44:59;-14561.53;;;15.43
62930;BMP280;49036;42.782;23.108;2023-04-03T09:47:33;-14561.19;;;15.42
62930;BMP280;49036;42.782;23.108;2023-04-03T09:52:41;-14559.63;;;15.37
62930;BMP280;49036;42.782;23.108;2023-04-03T09:55:14;-14573.66;;;15.78
62930;BMP280;49036;42.782;23.108;2023-04-03T09:57:40;-14562.75;;;15.46
62930;BMP280;49036;42.782;23.108;2023-04-03T10:00:20;-14550.13;;;15.09
62930;BMP280;49036;42.782;23.108;2023-04-03T10:02:50;-14555.81;;;15.26
62930;BMP280;49036;42.782;23.108;2023-04-03T10:05:39;-14569.34;;;15.66
62930;BMP280;49036;42.782;23.108;2023-04-03T10:10:40;-14555.47;;;15.25
62930;BMP280;49036;42.782;23.108;2023-04-03T10:13:11;-14563.28;;;15.48
62930;BMP280;49036;42.782;23.108;2023-04-03T10:15:43;-14566.91;;;15.58
62930;BMP280;49036;42.782;23.108;2023-04-03T10:20:48;-14592.03;;;16.32
62930;BMP280;49036;42.782;23.108;2023-04-03T10:23:18;-14594.97;;;16.41
62930;BMP280;49036;42.782;23.108;2023-04-03T10:29:21;-14594.28;;;16.39
62930;BMP280;49036;42.782;23.108;2023-04-03T10:34:45;-14575.91;;;15.85
62930;BMP280;49036;42.782;23.108;2023-04-03T10:42:41;-14559.47;;;15.37
62930;BMP280;49036;42.782;23.108;2023-04-03T10:45:29;-14558.09;;;15.33
62930;BMP280;49036;42.782;23.108;2023-04-03T10:53:17;-14565.53;;;15.54
62930;BMP280;49036;42.782;23.108;2023-04-03T10:56:15;-14562.59;;;15.46
62930;BMP280;49036;42.782;23.108;2023-04-03T10:58:48;-14547.53;;;15.02
62930;BMP280;49036;42.782;23.108;2023-04-03T11:01:19;-14539.38;;;14.78
62930;BMP280;49036;42.782;23.108;2023-04-03T11:03:52;-14531.25;;;14.54
62930;BMP280;49036;42.782;23.108;2023-04-03T11:06:20;-14526.56;;;14.40
62930;BMP280;49036;42.782;23.108;2023-04-03T11:08:59;-14523.28;;;14.31
62930;BMP280;49036;42.782;23.108;2023-04-03T11:11:33;-14523.97;;;14.33
62930;BMP280;49036;42.782;23.108;2023-04-03T11:14:10;-14526.94;;;14.41
62930;BMP280;49036;42.782;23.108;2023-04-03T11:16:45;-14533.31;;;14.60
62930;BMP280;49036;42.782;23.108;2023-04-03T11:19:18;-14537.66;;;14.73
62930;BMP280;49036;42.782;23.108;2023-04-03T11:22:10;-14541.28;;;14.83
62930;BMP280;49036;42.782;23.108;2023-04-03T11:24:41;-14540.44;;;14.81
62930;BMP280;49036;42.782;23.108;2023-04-03T11:27:16;-14531.94;;;14.56
62930;BMP280;49036;42.782;23.108;2023-04-03T11:29:44;-14520.69;;;14.23
62930;BMP280;49036;42.782;23.108;2023-04-03T11:33:02;-14505.63;;;13.79
62930;BMP280;49036;42.782;23.108;2023-04-03T11:35:31;-14497.84;;;13.56
62930;BMP280;49036;42.782;23.108;2023-04-03T11:37:59;-14497.16;;;13.54
62930;BMP280;49036;42.782;23.108;2023-04-03T11:40:28;-14491.78;;;13.38
62930;BMP280;49036;42.782;23.108;2023-04-03T11:47:57;-14471.03;;;12.77
62930;BMP280;49036;42.782;23.108;2023-04-03T12:03:56;-14397.16;;;10.60
62930;BMP280;49036;42.782;23.108;2023-04-03T12:06:41;-14385.56;;;10.26
62930;BMP280;49036;42.782;23.108;2023-04-03T12:12:38;-14375.88;;;9.98
62930;BMP280;49036;42.782;23.108;2023-04-03T12:15:26;-14373.63;;;9.91
62930;BMP280;49036;42.782;23.108;2023-04-03T12:17:52;-14371.19;;;9.84
62930;BMP280;49036;42.782;23.108;2023-04-03T12:23:27;-14374.66;;;9.94
62930;BMP280;49036;42.782;23.108;2023-04-03T12:26:18;-14376.91;;;10.01
62930;BMP280;49036;42.782;23.108;2023-04-03T12:28:45;-14381.59;;;10.15
62930;BMP280;49036;42.782;23.108;2023-04-03T12:31:12;-14381.59;;;10.15
62930;BMP280;49036;42.782;23.108;2023-04-03T12:33:59;-14379.00;;;10.07
62930;BMP280;49036;42.782;23.108;2023-04-03T12:36:41;-14377.44;;;10.02
62930;BMP280;49036;42.782;23.108;2023-04-03T12:39:36;-14376.38;;;9.99
62930;BMP280;49036;42.782;23.108;2023-04-03T12:42:30;-14376.38;;;9.99
62930;BMP280;49036;42.782;23.108;2023-04-03T12:47:35;-14368.63;;;9.76
62930;BMP280;49036;42.782;23.108;2023-04-03T12:50:04;-14359.44;;;9.50
62930;BMP280;49036;42.782;23.108;2023-04-03T12:52:44;-14356.16;;;9.40
62930;BMP280;49036;42.782;23.108;2023-04-03T12:55:15;-14353.75;;;9.33
62930;BMP280;49036;42.782;23.108;2023-04-03T12:57:41;-14350.28;;;9.23
62930;BMP280;49036;42.782;23.108;2023-04-03T13:00:42;-14344.41;;;9.05
62930;BMP280;49036;42.782;23.108;2023-04-03T13:03:22;-14340.78;;;8.95
62930;BMP280;49036;42.782;23.108;2023-04-03T13:05:49;-14339.03;;;8.90
62930;BMP280;49036;42.782;23.108;2023-04-03T13:08:15;-14333.50;;;8.73
62930;BMP280;49036;42.782;23.108;2023-04-03T13:11:01;-14327.13;;;8.55
62930;BMP280;49036;42.782;23.108;2023-04-03T13:13:28;-14321.56;;;8.38
62930;BMP280;49036;42.782;23.108;2023-04-03T13:15:54;-14316.91;;;8.25
62930;BMP280;49036;42.782;23.108;2023-04-03T13:18:32;-14313.28;;;8.14
62930;BMP280;49036;42.782;23.108;2023-04-03T13:21:13;-14308.63;;;8.00
62930;BMP280;49036;42.782;23.108;2023-04-03T13:23:43;-14303.78;;;7.86
62930;BMP280;49036;42.782;23.108;2023-04-03T13:26:10;-14298.25;;;7.70
62930;BMP280;49036;42.782;23.108;2023-04-03T13:28:36;-14297.72;;;7.68
62930;BMP280;49036;42.782;23.108;2023-04-03T13:31:18;-14294.78;;;7.59
62930;BMP280;49036;42.782;23.108;2023-04-03T13:42:30;-14284.94;;;7.30
62930;BMP280;49036;42.782;23.108;2023-04-03T13:44:36;-14282.69;;;7.24
62930;BMP280;49036;42.782;23.108;2023-04-03T13:47:15;-14277.69;;;7.09
62930;BMP280;49036;42.782;23.108;2023-04-03T13:50:01;-14270.94;;;6.89
62930;BMP280;49036;42.782;23.108;2023-04-03T13:52:30;-14267.31;;;6.79
62930;BMP280;49036;42.782;23.108;2023-04-03T13:54:59;-14264.88;;;6.71
62930;BMP280;49036;42.782;23.108;2023-04-03T13:57:25;-14263.16;;;6.66
62930;BMP280;49036;42.782;23.108;2023-04-03T13:59:51;-14259.38;;;6.55
62930;BMP280;49036;42.782;23.108;2023-04-03T14:02:21;-14257.28;;;6.49
62930;BMP280;49036;42.782;23.108;2023-04-03T14:04:52;-14256.41;;;6.47
62930;BMP280;49036;42.782;23.108;2023-04-03T14:07:21;-14257.28;;;6.49
62930;BMP280;49036;42.782;23.108;2023-04-03T14:09:47;-14258.16;;;6.52
62930;BMP280;49036;42.782;23.108;2023-04-03T14:12:27;-14260.22;;;6.58
62930;BMP280;49036;42.782;23.108;2023-04-03T14:14:54;-14259.53;;;6.56
62930;BMP280;49036;42.782;23.108;2023-04-03T14:17:25;-14260.06;;;6.57
62930;BMP280;49036;42.782;23.108;2023-04-03T14:19:52;-14261.94;;;6.63
62930;BMP280;49036;42.782;23.108;2023-04-03T14:22:25;-14261.78;;;6.62
62930;BMP280;49036;42.782;23.108;2023-04-03T14:24:51;-14263.34;;;6.67
62930;BMP280;49036;42.782;23.108;2023-04-03T14:27:23;-14264.88;;;6.71
62930;BMP280;49036;42.782;23.108;2023-04-03T14:29:51;-14263.84;;;6.68
62930;BMP280;49036;42.782;23.108;2023-04-03T14:32:18;-14264.19;;;6.69
62930;BMP280;49036;42.782;23.108;2023-04-03T14:34:45;-14261.78;;;6.62
62930;BMP280;49036;42.782;23.108;2023-04-03T14:37:21;-14260.91;;;6.60
62930;BMP280;49036;42.782;23.108;2023-04-03T14:39:48;-14260.91;;;6.60
62930;BMP280;49036;42.782;23.108;2023-04-03T14:42:17;-14260.75;;;6.59
62930;BMP280;49036;42.782;23.108;2023-04-03T14:44:43;-14261.25;;;6.61
62930;BMP280;49036;42.782;23.108;2023-04-03T14:47:11;-14260.56;;;6.59
62930;BMP280;49036;42.782;23.108;2023-04-03T14:49:37;-14260.38;;;6.58
62930;BMP280;49036;42.782;23.108;2023-04-03T14:52:04;-14261.94;;;6.63
62930;BMP280;49036;42.782;23.108;2023-04-03T14:54:30;-14262.28;;;6.64
62930;BMP280;49036;42.782;23.108;2023-04-03T14:56:58;-14263.00;;;6.66
62930;BMP280;49036;42.782;23.108;2023-04-03T14:59:24;-14263.00;;;6.66
62930;BMP280;49036;42.782;23.108;2023-04-03T15:01:50;-14263.16;;;6.66
62930;BMP280;49036;42.782;23.108;2023-04-03T15:04:20;-14262.13;;;6.63
62930;BMP280;49036;42.782;23.108;2023-04-03T15:06:47;-14262.28;;;6.64
62930;BMP280;49036;42.782;23.108;2023-04-03T15:09:24;-14260.56;;;6.59
62930;BMP280;49036;42.782;23.108;2023-04-03T15:11:51;-14259.88;;;6.57
62930;BMP280;49036;42.782;23.108;2023-04-03T15:14:17;-14260.56;;;6.59
62930;BMP280;49036;42.782;23.108;2023-04-03T15:16:43;-14259.72;;;6.56